»·PEaware :: N982ZA KSNA-KBLH

N982ZA :: KSNA-KBLH

FLIGHT INFORMATION

Flight Status: Arrived
Operator: Privately registered:
United States
More flights under this callsign
Pilot: Anonymous 15639 (15639)
Aircraft: CESSNA 172 SKYHAWK
(C172)
More flights by this aircraft type
Origin: KSNA John Wayne-Orange Co
United States
Destination: KBLH Blythe
United States
More flights between these airports :: More routes between these airports
Route: +SLI V64 BLH
File this flight plan on PilotEdge
Remarks: 11000 BTW PERIS AND BALDI
Altitude:
(Current/Filed)
9,000ft
Speed:
(Current/Filed)
120kts
Departed: 19-Oct-17 02:21 PM
Arrived: 19-Oct-17 04:08 PM
Distance/Time
Traveled:
158nm/1:47
Distance/Time
To Go:
Arrived

Flight Plot

Page will automatically refresh every two minutes.

Flight plan parsing failed; only flown route is shown


Map Options




Map Legend


Flown Route
Filed Route
Departure Airport
Arrival Airport
Navaid (VOR, NDB)
Fix

Horizontal Profiles

Position Reports

Time Latitude Longitude Heading Altitude Ground
Speed
19-Oct-17 14:03 33.670333 -117.875452 201 60ft 0kts
19-Oct-17 14:04 33.670333 -117.875452 201 60ft 0kts
19-Oct-17 14:05 33.670333 -117.875452 201 60ft 0kts
19-Oct-17 14:06 33.670333 -117.875452 201 60ft 0kts
19-Oct-17 14:07 33.670333 -117.875452 201 60ft 0kts
19-Oct-17 14:08 33.670333 -117.875452 201 60ft 0kts
19-Oct-17 14:09 33.670333 -117.875452 201 60ft 0kts
19-Oct-17 14:10 33.670333 -117.875452 201 60ft 0kts
19-Oct-17 14:11 33.670333 -117.875452 201 60ft 0kts
19-Oct-17 14:12 33.670333 -117.875453 201 60ft 0kts
19-Oct-17 14:13 33.670333 -117.875453 201 60ft 0kts
19-Oct-17 14:14 33.670333 -117.875453 201 60ft 0kts
19-Oct-17 14:15 33.670333 -117.875453 201 60ft 0kts
19-Oct-17 14:16 33.670333 -117.875453 201 60ft 0kts
19-Oct-17 14:17 33.670333 -117.875453 201 60ft 0kts
19-Oct-17 14:18 33.669950 -117.874801 115 60ft 2kts
19-Oct-17 14:19 33.669946 -117.874791 115 60ft 0kts
19-Oct-17 14:20 33.669946 -117.874791 115 60ft 0kts
19-Oct-17 14:21 33.669876 -117.874613 116 60ft 4kts
19-Oct-17 14:22 33.672047 -117.872628 27 60ft 16kts
19-Oct-17 14:23 33.676411 -117.869861 28 60ft 17kts
19-Oct-17 14:24 33.680722 -117.867297 30 60ft 14kts
19-Oct-17 14:25 33.681251 -117.866530 109 60ft 0kts
19-Oct-17 14:26 33.675378 -117.868987 207 147ft 63kts
19-Oct-17 14:27 33.656453 -117.874004 187 792ft 74kts
19-Oct-17 14:28 33.635870 -117.875317 186 1471ft 74kts
19-Oct-17 14:29 33.615086 -117.876926 184 2088ft 76kts
19-Oct-17 14:30 33.593916 -117.878230 185 2682ft 76kts
19-Oct-17 14:31 33.572707 -117.879678 187 3248ft 76kts
19-Oct-17 14:32 33.555166 -117.871230 113 3817ft 84kts
19-Oct-17 14:33 33.555686 -117.842163 91 4347ft 89kts
19-Oct-17 14:34 33.556702 -117.811889 92 4898ft 92kts
19-Oct-17 14:35 33.558052 -117.781107 88 5436ft 92kts
19-Oct-17 14:36 33.559791 -117.749282 88 5903ft 97kts
19-Oct-17 14:37 33.561459 -117.716624 88 6379ft 98kts
19-Oct-17 14:38 33.563091 -117.683717 88 6839ft 99kts
19-Oct-17 14:39 33.564702 -117.650753 87 7268ft 100kts
19-Oct-17 14:40 33.566344 -117.616833 87 7672ft 102kts
19-Oct-17 14:41 33.567979 -117.582798 87 8066ft 102kts
19-Oct-17 14:42 33.569614 -117.548534 86 8445ft 103kts
19-Oct-17 14:43 33.571254 -117.514058 86 8809ft 103kts
19-Oct-17 14:44 33.572950 -117.478237 85 8993ft 117kts
19-Oct-17 14:45 33.574867 -117.437219 85 8989ft 126kts
19-Oct-17 14:46 33.576846 -117.394664 85 8990ft 128kts
19-Oct-17 14:47 33.578830 -117.351775 84 8993ft 129kts
19-Oct-17 14:48 33.580794 -117.309323 85 9016ft 127kts
19-Oct-17 14:49 33.582745 -117.266658 85 9016ft 128kts
19-Oct-17 14:50 33.584677 -117.224073 85 9016ft 128kts
19-Oct-17 14:51 33.586598 -117.181404 85 9016ft 128kts
19-Oct-17 14:52 33.588504 -117.138736 85 9017ft 128kts
19-Oct-17 14:53 33.590401 -117.096091 85 9069ft 123kts
19-Oct-17 14:54 33.592050 -117.058902 85 9530ft 103kts
19-Oct-17 14:55 33.593548 -117.025152 86 9890ft 102kts
19-Oct-17 14:56 33.595107 -116.989430 86 10135ft 109kts
19-Oct-17 14:57 33.596608 -116.954620 87 10422ft 106kts
19-Oct-17 14:58 33.598123 -116.919413 88 10720ft 104kts
19-Oct-17 14:59 33.599604 -116.884324 88 10899ft 111kts
19-Oct-17 15:00 33.601184 -116.846405 88 10890ft 115kts
19-Oct-17 15:01 33.602779 -116.808129 88 10890ft 115kts
19-Oct-17 15:02 33.604372 -116.769778 88 10890ft 115kts
19-Oct-17 15:03 33.605964 -116.731430 88 10890ft 115kts
19-Oct-17 15:04 33.607529 -116.693118 88 10890ft 115kts
19-Oct-17 15:05 33.609099 -116.654747 88 10890ft 115kts
19-Oct-17 15:06 33.610644 -116.616306 88 10900ft 113kts
19-Oct-17 15:07 33.612122 -116.579563 88 11000ft 112kts
19-Oct-17 15:08 33.613637 -116.541408 87 10990ft 115kts
19-Oct-17 15:09 33.615153 -116.503014 87 10982ft 115kts
19-Oct-17 15:10 33.616710 -116.464863 90 10974ft 113kts
19-Oct-17 15:11 33.618133 -116.427255 90 10967ft 112kts
19-Oct-17 15:12 33.619571 -116.389712 89 10961ft 112kts
19-Oct-17 15:13 33.621008 -116.352173 89 10961ft 112kts
19-Oct-17 15:14 33.622428 -116.314820 90 10958ft 112kts
19-Oct-17 15:15 33.623833 -116.277539 90 10958ft 112kts
19-Oct-17 15:16 33.625230 -116.240161 90 10957ft 112kts
19-Oct-17 15:17 33.626616 -116.202782 90 10955ft 112kts
19-Oct-17 15:18 33.627987 -116.165512 90 10954ft 112kts
19-Oct-17 15:19 33.627594 -116.128163 94 10954ft 111kts
19-Oct-17 15:20 33.626962 -116.090863 94 10954ft 111kts
19-Oct-17 15:21 33.626301 -116.053580 94 10954ft 111kts
19-Oct-17 15:22 33.625631 -116.016408 94 10954ft 111kts
19-Oct-17 15:23 33.624825 -115.975001 94 10244ft 127kts
19-Oct-17 15:24 33.624014 -115.932966 94 9446ft 125kts
19-Oct-17 15:25 33.623208 -115.891274 94 8648ft 124kts
19-Oct-17 15:26 33.622404 -115.850201 94 7852ft 122kts
19-Oct-17 15:27 33.621598 -115.809725 94 7054ft 120kts
19-Oct-17 15:28 33.620862 -115.771233 94 6954ft 113kts
19-Oct-17 15:29 33.620102 -115.733224 94 6954ft 114kts
19-Oct-17 15:30 33.619775 -115.695087 93 6954ft 114kts
19-Oct-17 15:31 33.619541 -115.657041 94 6954ft 114kts
19-Oct-17 15:32 33.618986 -115.619054 94 6954ft 114kts
19-Oct-17 15:33 33.618265 -115.581063 94 6954ft 114kts
19-Oct-17 15:34 33.617454 -115.542985 94 6954ft 114kts
19-Oct-17 15:35 33.616594 -115.505024 94 6954ft 114kts
19-Oct-17 15:36 33.615701 -115.466931 94 6954ft 114kts
19-Oct-17 15:37 33.614790 -115.428902 94 6954ft 114kts
19-Oct-17 15:38 33.613860 -115.390655 95 6954ft 115kts
19-Oct-17 15:39 33.612898 -115.351951 95 6954ft 117kts
19-Oct-17 15:40 33.611696 -115.312689 96 6953ft 118kts
19-Oct-17 15:41 33.610556 -115.272841 95 6953ft 120kts
19-Oct-17 15:42 33.609438 -115.232308 95 6953ft 122kts
19-Oct-17 15:43 33.608308 -115.191140 95 6593ft 124kts
19-Oct-17 15:44 33.607144 -115.148776 94 6111ft 128kts
19-Oct-17 15:45 33.606054 -115.107680 94 5961ft 117kts
19-Oct-17 15:46 33.604984 -115.067929 93 5965ft 124kts
19-Oct-17 15:47 33.603846 -115.026109 93 5963ft 126kts
19-Oct-17 15:48 33.602676 -114.983832 93 5963ft 126kts
19-Oct-17 15:49 33.601487 -114.941597 92 5965ft 126kts
19-Oct-17 15:50 33.600288 -114.899538 92 5971ft 125kts
19-Oct-17 15:51 33.599083 -114.857758 91 5978ft 124kts
19-Oct-17 15:52 33.597986 -114.816304 91 5984ft 123kts
19-Oct-17 15:53 33.596683 -114.775145 91 5991ft 122kts
19-Oct-17 15:54 33.603876 -114.736727 59 5997ft 120kts
19-Oct-17 15:55 33.618937 -114.700842 63 5999ft 120kts
19-Oct-17 15:56 33.632931 -114.664024 63 5998ft 121kts
19-Oct-17 15:57 33.646836 -114.627246 64 5997ft 121kts
19-Oct-17 15:58 33.660551 -114.590774 64 5692ft 116kts
19-Oct-17 15:59 33.673561 -114.556088 65 5192ft 113kts
19-Oct-17 16:00 33.686451 -114.521724 65 4698ft 113kts
19-Oct-17 16:01 33.699345 -114.487287 67 4219ft 111kts
19-Oct-17 16:02 33.693805 -114.453082 107 4195ft 105kts
19-Oct-17 16:03 33.676480 -114.453727 272 4193ft 95kts
19-Oct-17 16:04 33.684966 -114.484162 283 4196ft 96kts
19-Oct-17 16:05 33.687061 -114.515288 244 4033ft 102kts
19-Oct-17 16:06 33.675083 -114.547389 245 3343ft 106kts
19-Oct-17 16:07 33.663416 -114.579305 240 2498ft 101kts
19-Oct-17 16:08 33.652392 -114.608903 239 2201ft 96kts
19-Oct-17 16:09 33.641340 -114.638626 240 1819ft 95kts
19-Oct-17 16:10 33.631533 -114.666470 254 1166ft 86kts
19-Oct-17 16:11 33.634808 -114.694273 273 896ft 79kts
19-Oct-17 16:12 33.632509 -114.716035 196 577ft 61kts
19-Oct-17 16:13 33.619727 -114.716822 181 397ft 24kts
19-Oct-17 16:14 33.618189 -114.715167 178 397ft 10kts
19-Oct-17 16:15 33.615114 -114.714748 81 397ft 9kts
19-Oct-17 16:16 33.614217 -114.712967 230 397ft 4kts
19-Oct-17 16:17 33.614299 -114.713074 2 397ft 0kts
19-Oct-17 16:18 33.614299 -114.713074 2 397ft 0kts

Navigation Log

Ident Type
Flight plan parsing failed, navigation log unavailable